Time;durP1;ratioP1;P1;durP2;ratioP2;P2;SDS_P1;SDS_P2;PMS_P1;PMS_P2;Temp;Humidity;BMP_temperature;BMP_pressure;BME280_temperature;BME280_humidity;BME280_pressure;Samples;Min_cycle;Max_cycle;Signal;HPM_P1;HPM_P2
2022/12/03 00:00:45;;;;;;;;;;;;;;;;;;5005171;28;20106;-83
2022/12/03 00:03:11;;;;;;;;;;;;;;;;;;5005252;28;19953;-82
2022/12/03 00:05:38;;;;;;;;;;;;;;;;;;4997727;28;19925;-81
2022/12/03 00:08:04;;;;;;;;;;;;;;;;;;5005801;28;19964;-81
2022/12/03 00:10:31;;;;;;;;;;;;;;;;;;5002216;28;20016;-81
2022/12/03 00:12:59;;;;;;;;;;;;;;;;;;5000240;28;19925;-83
2022/12/03 00:15:28;;;;;;;;;;;;;;;;;;4998919;28;20534;-83
2022/12/03 00:17:54;;;;;;;;;;;;;;;;;;4998046;28;19926;-83
2022/12/03 00:20:22;;;;;;;;;;;;;;;;;;4997475;28;19925;-84
2022/12/03 00:22:48;;;;;;;;;;;;;;;;;;4999354;28;19926;-81
2022/12/03 00:25:15;;;;;;;;;;;;;;;;;;4997581;28;19980;-80
2022/12/03 00:27:42;;;;;;;;;;;;;;;;;;4998940;28;19969;-83
2022/12/03 00:30:11;;;;;;;;;;;;;;;;;;5000193;28;19981;-82
2022/12/03 00:32:38;;;;;;;;;;;;;;;;;;4998310;28;20024;-83
2022/12/03 00:35:05;;;;;;;;;;;;;;;;;;4998457;28;19977;-81
2022/12/03 00:37:33;;;;;;;;;;;;;;;;;;4998077;28;20391;-82
2022/12/03 00:40:00;;;;;;;;;;;;;;;;;;5034747;23;19929;-85
2022/12/03 00:42:26;;;;;;;;;;;;;;;;;;5034955;28;19925;-83
2022/12/03 00:44:53;;;;;;;;;;;;;;;;;;5035462;28;19959;-85
2022/12/03 00:47:21;;;;;;;;;;;;;;;;;;5036247;28;19926;-84
2022/12/03 00:49:47;;;;;;;;;;;;;;;;;;5035575;28;20364;-85
2022/12/03 00:52:14;;;;;;;;;;;;;;;;;;5035254;28;19996;-85
2022/12/03 00:54:40;;;;;;;;;;;;;;;;;;5036080;28;20003;-84
2022/12/03 00:57:07;;;;;;;;;;;;;;;;;;5034568;28;19979;-83
2022/12/03 00:59:33;;;;;;;;;;;;;;;;;;5034692;28;20010;-82
2022/12/03 01:01:59;;;;;;;;;;;;;;;;;;5037238;28;19925;-84
2022/12/03 01:04:27;;;;;;;;;;;;;;;;;;5036693;28;20016;-84
2022/12/03 01:06:54;;;;;;;;;;;;;;;;;;5041133;28;19982;-84
2022/12/03 01:09:20;;;;;;;;;;;;;;;;;;5040990;28;19932;-84
2022/12/03 01:11:47;;;;;;;;;;;;;;;;;;5036041;28;20486;-84
2022/12/03 01:14:15;;;;;;;;;;;;;;;;;;5036245;28;19975;-84
2022/12/03 01:16:41;;;;;;;;;;;;;;;;;;5036287;28;19961;-84
2022/12/03 01:19:09;;;;;;;;;;;;;;;;;;5035868;28;19968;-84
2022/12/03 01:21:37;;;;;;;;;;;;;;;;;;5039432;28;19932;-83
2022/12/03 01:24:04;;;;;;;;;;;;;;;;;;5037628;28;19925;-84
2022/12/03 01:26:31;;;;;;;;;;;;;;;;;;5041318;28;20057;-85
2022/12/03 01:28:59;;;;;;;;;;;;;;;;;;5048262;23;19924;-68
2022/12/03 01:34:09;;;;;;;;;;;;;;;;;;5052856;28;20492;-69
2022/12/03 01:36:37;;;;;;;;;;;;;;;;;;5051876;28;20164;-67
2022/12/03 01:39:04;;;;;;;;;;;;;;;;;;5052395;28;20282;-68
2022/12/03 01:41:32;;;;;;;;;;;;;;;;;;5042226;28;20366;-66
2022/12/03 01:43:58;;;;;;;;;;;;;;;;;;5032493;28;19932;-67
2022/12/03 01:46:27;;;;;;;;;;;;;;;;;;5034938;28;20633;-67
2022/12/03 01:49:02;;;;;;;;;;;;;;;;;;5052671;28;20358;-68
2022/12/03 01:51:29;;;;;;;;;;;;;;;;;;5039151;28;20287;-67
2022/12/03 01:53:57;;;;;;;;;;;;;;;;;;5032262;28;19971;-68
2022/12/03 01:56:24;;;;;;;;;;;;;;;;;;5031914;28;19925;-68
2022/12/03 01:58:53;;;;;;;;;;;;;;;;;;5048930;28;19924;-69
2022/12/03 02:01:20;;;;;;;;;;;;;;;;;;5049779;28;19937;-66
2022/12/03 02:03:47;;;;;;;;;;;;;;;;;;5044769;28;20442;-67
2022/12/03 02:06:15;;;;;;;;;;;;;;;;;;5052225;28;19931;-68
2022/12/03 02:08:41;;;;;;;;;;;;;;;;;;5035044;28;19968;-67
2022/12/03 02:11:12;;;;;;;;;;;;;;;;;;5032704;28;19925;-68
2022/12/03 02:13:39;;;;;;;;;;;;;;;;;;5047972;28;19931;-67
2022/12/03 02:16:06;;;;;;;;;;;;;;;;;;5051996;28;20270;-67
2022/12/03 02:18:33;;;;;;;;;;;;;;;;;;5051237;28;19928;-67
2022/12/03 02:21:03;;;;;;;;;;;;;;;;;;5051450;28;19924;-67
2022/12/03 02:23:33;;;;;;;;;;;;;;;;;;5043880;28;20390;-67
2022/12/03 02:26:01;;;;;;;;;;;;;;;;;;5052110;28;19924;-67
2022/12/03 02:28:28;;;;;;;;;;;;;;;;;;5036086;28;19926;-67
2022/12/03 02:30:54;;;;;;;;;;;;;;;;;;5038884;28;19960;-67
2022/12/03 02:33:21;;;;;;;;;;;;;;;;;;5045670;28;20432;-66
2022/12/03 02:35:48;;;;;;;;;;;;;;;;;;5043140;28;19972;-67
2022/12/03 02:38:16;;;;;;;;;;;;;;;;;;5033142;28;19933;-66
2022/12/03 02:40:43;;;;;;;;;;;;;;;;;;5035623;28;20007;-68
2022/12/03 02:43:11;;;;;;;;;;;;;;;;;;5032474;28;19929;-68
2022/12/03 02:45:39;;;;;;;;;;;;;;;;;;5044139;28;19975;-67
2022/12/03 02:48:06;;;;;;;;;;;;;;;;;;5051319;28;19925;-67
2022/12/03 02:50:34;;;;;;;;;;;;;;;;;;5050193;28;19925;-66
2022/12/03 02:53:02;;;;;;;;;;;;;;;;;;5051966;28;19982;-66
2022/12/03 02:55:29;;;;;;;;;;;;;;;;;;5041649;28;20397;-67
2022/12/03 02:57:56;;;;;;;;;;;;;;;;;;5031559;28;19987;-66
2022/12/03 03:00:24;;;;;;;;;;;;;;;;;;5032426;28;19932;-66
2022/12/03 03:02:51;;;;;;;;;;;;;;;;;;5051474;28;19928;-66
2022/12/03 03:05:19;;;;;;;;;;;;;;;;;;5037941;28;19928;-67
2022/12/03 03:07:46;;;;;;;;;;;;;;;;;;5034901;28;20212;-67
2022/12/03 03:10:14;;;;;;;;;;;;;;;;;;5035212;28;19925;-67
2022/12/03 03:12:40;;;;;;;;;;;;;;;;;;5035365;28;19925;-67
2022/12/03 03:15:08;;;;;;;;;;;;;;;;;;5036401;28;20329;-67
2022/12/03 03:17:36;;;;;;;;;;;;;;;;;;5052507;28;19971;-67
2022/12/03 03:20:02;;;;;;;;;;;;;;;;;;5055085;28;19934;-67
2022/12/03 03:22:31;;;;;;;;;;;;;;;;;;5038508;28;19979;-67
2022/12/03 03:24:58;;;;;;;;;;;;;;;;;;5041084;28;20046;-66
2022/12/03 03:27:25;;;;;;;;;;;;;;;;;;5040988;28;19991;-67
2022/12/03 03:29:51;;;;;;;;;;;;;;;;;;5034946;28;19925;-67
2022/12/03 03:32:18;;;;;;;;;;;;;;;;;;5034850;28;19979;-67
2022/12/03 03:34:46;;;;;;;;;;;;;;;;;;5039686;28;20392;-67
2022/12/03 03:37:13;;;;;;;;;;;;;;;;;;5047991;28;20366;-67
2022/12/03 03:39:39;;;;;;;;;;;;;;;;;;5052152;28;19925;-66
2022/12/03 03:42:06;;;;;;;;;;;;;;;;;;5054491;28;19928;-66
2022/12/03 03:44:32;;;;;;;;;;;;;;;;;;5052148;28;19925;-67
2022/12/03 03:46:59;;;;;;;;;;;;;;;;;;5042619;28;19929;-67
2022/12/03 03:49:26;;;;;;;;;;;;;;;;;;5034922;28;19968;-66
2022/12/03 03:51:54;;;;;;;;;;;;;;;;;;5034439;28;19925;-66
2022/12/03 03:54:21;;;;;;;;;;;;;;;;;;5043869;28;19932;-66
2022/12/03 03:56:48;;;;;;;;;;;;;;;;;;5051981;28;19935;-66
2022/12/03 03:59:15;;;;;;;;;;;;;;;;;;5035606;28;19979;-68
2022/12/03 04:01:43;;;;;;;;;;;;;;;;;;5034424;28;19929;-67
2022/12/03 04:04:15;;;;;;;;;;;;;;;;;;5042368;28;19974;-67
2022/12/03 04:06:42;;;;;;;;;;;;;;;;;;5051345;28;20278;-66
2022/12/03 04:09:10;;;;;;;;;;;;;;;;;;5034231;28;19925;-67
2022/12/03 04:14:20;;;;;;;;;;;;;;;;;;5034206;28;20409;-67
2022/12/03 04:16:47;;;;;;;;;;;;;;;;;;5034240;28;19971;-69
2022/12/03 04:19:13;;;;;;;;;;;;;;;;;;5034956;28;19926;-67
2022/12/03 04:24:25;;;;;;;;;;;;;;;;;;5044568;28;19948;-67
2022/12/03 04:29:35;;;;;;;;;;;;;;;;;;5045577;28;19939;-67
2022/12/03 04:37:30;;;;;;;;;;;;;;;;;;5035199;28;20285;-67
2022/12/03 04:39:57;;;;;;;;;;;;;;;;;;5038280;28;19929;-67
2022/12/03 04:42:24;;;;;;;;;;;;;;;;;;5033145;28;19991;-67
2022/12/03 04:44:51;;;;;;;;;;;;;;;;;;5046338;28;19924;-67
2022/12/03 04:47:18;;;;;;;;;;;;;;;;;;5049682;28;19979;-67
2022/12/03 04:49:45;;;;;;;;;;;;;;;;;;5052372;28;19954;-67
2022/12/03 04:52:13;;;;;;;;;;;;;;;;;;5052984;28;19925;-67
2022/12/03 04:54:40;;;;;;;;;;;;;;;;;;5052790;28;19931;-69
2022/12/03 04:57:08;;;;;;;;;;;;;;;;;;5051450;28;19924;-69
2022/12/03 04:59:35;;;;;;;;;;;;;;;;;;5035364;28;20271;-69
2022/12/03 05:02:02;;;;;;;;;;;;;;;;;;5033087;28;19987;-68
2022/12/03 05:04:28;;;;;;;;;;;;;;;;;;5043021;28;20377;-69
2022/12/03 05:06:55;;;;;;;;;;;;;;;;;;5052570;28;19956;-69
2022/12/03 05:09:21;;;;;;;;;;;;;;;;;;5050762;28;20001;-69
2022/12/03 05:11:50;;;;;;;;;;;;;;;;;;5052001;28;19929;-69
2022/12/03 05:14:18;;;;;;;;;;;;;;;;;;5050180;28;19925;-69
2022/12/03 05:16:45;;;;;;;;;;;;;;;;;;5038926;28;19925;-69
2022/12/03 05:19:12;;;;;;;;;;;;;;;;;;5033162;28;20006;-68
2022/12/03 05:24:24;;;;;;;;;;;;;;;;;;5026014;28;20322;-68
2022/12/03 05:30:25;;;;;;;;;;;;;;;;;;5028843;28;19928;-68
2022/12/03 05:35:55;;;;;;;;;;;;;;;;;;5030260;28;20286;-68
2022/12/03 05:38:24;;;;;;;;;;;;;;;;;;5032624;28;19925;-68
2022/12/03 05:40:51;;;;;;;;;;;;;;;;;;5032247;28;20378;-68
2022/12/03 05:43:34;;;;;;;;;;;;;;;;;;5032055;28;19979;-68
2022/12/03 05:52:08;;;;;;;;;;;;;;;;;;5028536;28;19931;-68
2022/12/03 05:54:34;;;;;;;;;;;;;;;;;;5032237;28;19965;-68
2022/12/03 05:57:01;;;;;;;;;;;;;;;;;;5032098;28;19929;-68
2022/12/03 05:59:27;;;;;;;;;;;;;;;;;;5044483;28;19952;-68
2022/12/03 06:01:54;;;;;;;;;;;;;;;;;;5051619;28;19929;-67
2022/12/03 06:04:21;;;;;;;;;;;;;;;;;;5042849;28;19964;-68
2022/12/03 06:06:47;;;;;;;;;;;;;;;;;;5045388;28;19931;-68
2022/12/03 06:09:15;;;;;;;;;;;;;;;;;;5052300;28;20378;-69
2022/12/03 06:11:41;;;;;;;;;;;;;;;;;;5051437;28;19924;-69
2022/12/03 06:14:08;;;;;;;;;;;;;;;;;;5052400;28;19925;-69
2022/12/03 06:16:35;;;;;;;;;;;;;;;;;;5048434;28;20381;-69
2022/12/03 06:19:01;;;;;;;;;;;;;;;;;;5032174;28;19960;-69
2022/12/03 06:21:28;;;;;;;;;;;;;;;;;;5033514;28;19925;-69
2022/12/03 06:23:54;;;;;;;;;;;;;;;;;;5052269;28;19972;-69
2022/12/03 06:26:22;;;;;;;;;;;;;;;;;;5052086;28;19929;-69
2022/12/03 06:28:49;;;;;;;;;;;;;;;;;;5032609;28;19929;-69
2022/12/03 06:31:15;;;;;;;;;;;;;;;;;;5031963;28;20396;-69
2022/12/03 06:33:42;;;;;;;;;;;;;;;;;;5032493;28;19956;-69
2022/12/03 06:36:09;;;;;;;;;;;;;;;;;;5032108;28;19925;-69
2022/12/03 06:38:35;;;;;;;;;;;;;;;;;;5032506;28;19925;-70
2022/12/03 06:41:02;;;;;;;;;;;;;;;;;;5038819;28;20328;-69
2022/12/03 06:43:30;;;;;;;;;;;;;;;;;;5038567;28;19925;-69
2022/12/03 06:45:56;;;;;;;;;;;;;;;;;;5063830;23;19925;-80
2022/12/03 06:48:22;;;;;;;;;;;;;;;;;;5058671;28;20003;-82
2022/12/03 06:50:49;;;;;;;;;;;;;;;;;;5058917;28;19925;-80
2022/12/03 06:53:15;;;;;;;;;;;;;;;;;;5058752;28;19935;-79
2022/12/03 06:55:42;;;;;;;;;;;;;;;;;;5058654;28;19925;-80
2022/12/03 06:58:37;;;;;;;;;;;;;;;;;;5058889;28;19925;-80
2022/12/03 07:04:23;;;;;;;;;;;;;;;;;;5058984;28;19923;-81
2022/12/03 07:07:15;;;;;;;;;;;;;;;;;;5070793;28;19979;-82
2022/12/03 07:09:42;;;;;;;;;;;;;;;;;;5080838;28;19909;-83
2022/12/03 07:12:08;;;;;;;;;;;;;;;;;;5081302;28;19925;-82
2022/12/03 07:17:38;;;;;;;;;;;;;;;;;;5069848;28;19975;-82
2022/12/03 07:20:07;;;;;;;;;;;;;;;;;;5074864;28;19935;-83
2022/12/03 07:22:34;;;;;;;;;;;;;;;;;;5061925;28;19970;-79
2022/12/03 07:25:00;;;;;;;;;;;;;;;;;;5059027;28;19931;-79
2022/12/03 07:27:27;;;;;;;;;;;;;;;;;;5057233;28;19925;-81
2022/12/03 07:29:53;;;;;;;;;;;;;;;;;;5057566;28;19925;-79
2022/12/03 07:32:19;;;;;;;;;;;;;;;;;;5058758;28;19925;-79
2022/12/03 07:34:46;;;;;;;;;;;;;;;;;;5058797;28;19987;-80
2022/12/03 07:37:14;;;;;;;;;;;;;;;;;;5058110;28;19931;-79
2022/12/03 07:45:46;;;;;;;;;;;;;;;;;;5055441;28;19941;-80
2022/12/03 07:48:12;;;;;;;;;;;;;;;;;;5057505;28;19925;-80
2022/12/03 07:53:43;;;;;;;;;;;;;;;;;;5054391;28;20315;-81
2022/12/03 07:56:09;;;;;;;;;;;;;;;;;;5056502;28;19931;-81
2022/12/03 07:58:36;;;;;;;;;;;;;;;;;;5056487;28;20396;-82
2022/12/03 08:01:02;;;;;;;;;;;;;;;;;;5057288;28;19931;-81
2022/12/03 08:03:29;;;;;;;;;;;;;;;;;;5057391;28;19993;-80
2022/12/03 08:05:55;;;;;;;;;;;;;;;;;;5056972;28;19931;-79
2022/12/03 08:08:22;;;;;;;;;;;;;;;;;;5057294;28;19924;-80
2022/12/03 08:13:52;;;;;;;;;;;;;;;;;;5055409;28;20001;-80
2022/12/03 08:22:43;;;;;;;;;;;;;;;;;;5036675;28;19923;-81
2022/12/03 08:25:14;;;;;;;;;;;;;;;;;;5059409;28;20395;-81
2022/12/03 08:27:40;;;;;;;;;;;;;;;;;;5062491;28;19929;-81
2022/12/03 08:30:11;;;;;;;;;;;;;;;;;;5062992;28;19931;-79
2022/12/03 08:32:37;;;;;;;;;;;;;;;;;;5061633;28;20396;-81
2022/12/03 08:35:09;;;;;;;;;;;;;;;;;;5057831;28;20019;-82
2022/12/03 08:37:35;;;;;;;;;;;;;;;;;;5057290;28;20019;-82
2022/12/03 08:40:02;;;;;;;;;;;;;;;;;;5057604;28;20031;-82
2022/12/03 08:42:42;;;;;;;;;;;;;;;;;;5058359;28;19925;-81
2022/12/03 08:51:19;;;;;;;;;;;;;;;;;;5059362;28;19981;-80
2022/12/03 08:53:47;;;;;;;;;;;;;;;;;;5062988;28;20430;-81
2022/12/03 08:56:19;;;;;;;;;;;;;;;;;;5062410;28;19931;-81
2022/12/03 08:58:47;;;;;;;;;;;;;;;;;;5056442;28;19931;-81
2022/12/03 09:01:24;;;;;;;;;;;;;;;;;;5057023;28;20436;-81
2022/12/03 09:03:51;;;;;;;;;;;;;;;;;;5056961;28;19931;-82
2022/12/03 09:06:19;;;;;;;;;;;;;;;;;;5056190;28;19978;-82
2022/12/03 09:08:45;;;;;;;;;;;;;;;;;;5056061;28;19925;-81
2022/12/03 09:11:12;;;;;;;;;;;;;;;;;;5055994;28;19932;-81
2022/12/03 09:13:39;;;;;;;;;;;;;;;;;;5057082;28;19924;-82
2022/12/03 09:16:06;;;;;;;;;;;;;;;;;;5052906;28;19946;-80
2022/12/03 09:18:32;;;;;;;;;;;;;;;;;;5056602;28;20000;-80
2022/12/03 09:20:59;;;;;;;;;;;;;;;;;;5058154;28;20000;-81
2022/12/03 09:23:26;;;;;;;;;;;;;;;;;;5058288;28;19971;-80
2022/12/03 09:25:53;;;;;;;;;;;;;;;;;;5058946;28;20007;-81
2022/12/03 09:28:19;;;;;;;;;;;;;;;;;;5061325;28;20456;-81
2022/12/03 09:30:46;;;;;;;;;;;;;;;;;;5060987;28;19924;-81
2022/12/03 09:33:12;;;;;;;;;;;;;;;;;;5072765;28;19936;-79
2022/12/03 09:35:39;;;;;;;;;;;;;;;;;;5077991;28;19909;-81
2022/12/03 09:38:05;;;;;;;;;;;;;;;;;;5077983;28;19929;-81
2022/12/03 09:40:34;;;;;;;;;;;;;;;;;;5073733;28;19925;-82
2022/12/03 09:43:04;;;;;;;;;;;;;;;;;;5062507;28;19935;-82
2022/12/03 09:45:30;;;;;;;;;;;;;;;;;;5058217;28;19952;-88
2022/12/03 09:47:57;;;;;;;;;;;;;;;;;;5057786;28;19959;-84
2022/12/03 09:50:25;;;;;;;;;;;;;;;;;;5064525;28;19924;-83
2022/12/03 09:52:53;;;;;;;;;;;;;;;;;;5077607;28;19924;-85
2022/12/03 09:55:22;;;;;;;;;;;;;;;;;;5076391;28;19921;-80
2022/12/03 09:57:51;;;;;;;;;;;;;;;;;;5073533;28;19962;-80
2022/12/03 10:00:19;;;;;;;;;;;;;;;;;;5060821;28;19932;-80
2022/12/03 10:02:46;;;;;;;;;;;;;;;;;;5058254;28;19924;-81
2022/12/03 10:05:12;;;;;;;;;;;;;;;;;;5058830;28;19925;-80
2022/12/03 10:07:39;;;;;;;;;;;;;;;;;;5062110;28;19999;-81
2022/12/03 10:10:07;;;;;;;;;;;;;;;;;;5059534;28;19925;-82
2022/12/03 10:12:34;;;;;;;;;;;;;;;;;;5057535;28;19925;-82
2022/12/03 10:15:02;;;;;;;;;;;;;;;;;;5057208;28;19924;-82
2022/12/03 10:17:30;;;;;;;;;;;;;;;;;;5059694;28;20365;-82
2022/12/03 10:19:57;;;;;;;;;;;;;;;;;;5061502;28;19967;-81
2022/12/03 10:22:23;;;;;;;;;;;;;;;;;;5061264;28;19925;-81
2022/12/03 10:25:13;;;;;;;;;;;;;;;;;;5055770;28;20016;-80
2022/12/03 10:27:40;;;;;;;;;;;;;;;;;;5045171;28;19931;-81
2022/12/03 10:30:14;;;;;;;;;;;;;;;;;;5059684;28;20011;-81
2022/12/03 10:32:41;;;;;;;;;;;;;;;;;;5055862;28;20008;-83
2022/12/03 10:35:09;;;;;;;;;;;;;;;;;;5059026;28;19987;-81
2022/12/03 10:37:36;;;;;;;;;;;;;;;;;;5060214;28;19968;-82
2022/12/03 10:40:07;;;;;;;;;;;;;;;;;;5061345;28;20015;-82
2022/12/03 10:42:34;;;;;;;;;;;;;;;;;;5060888;28;19925;-82
2022/12/03 10:45:08;;;;;;;;;;;;;;;;;;5061287;28;20019;-82
2022/12/03 10:47:35;;;;;;;;;;;;;;;;;;5060956;28;19932;-82
2022/12/03 10:50:03;;;;;;;;;;;;;;;;;;5061798;28;19932;-81
2022/12/03 10:52:29;;;;;;;;;;;;;;;;;;5061425;28;20011;-82
2022/12/03 10:54:56;;;;;;;;;;;;;;;;;;5060653;28;19925;-83
2022/12/03 10:57:23;;;;;;;;;;;;;;;;;;5058815;28;20458;-82
2022/12/03 10:59:49;;;;;;;;;;;;;;;;;;5058096;28;19960;-82
2022/12/03 11:02:19;;;;;;;;;;;;;;;;;;5057404;28;20325;-82
2022/12/03 11:04:46;;;;;;;;;;;;;;;;;;5058068;28;19924;-82
2022/12/03 11:07:14;;;;;;;;;;;;;;;;;;5057898;28;19925;-82
2022/12/03 11:09:43;;;;;;;;;;;;;;;;;;5060963;28;20336;-83
2022/12/03 11:12:17;;;;;;;;;;;;;;;;;;5061776;28;20043;-82
2022/12/03 11:15:05;;;;;;;;;;;;;;;;;;5061530;28;19936;-83
2022/12/03 11:17:46;;;;;;;;;;;;;;;;;;5062383;28;20081;-83
2022/12/03 11:20:39;;;;;;;;;;;;;;;;;;5061225;28;20004;-83
2022/12/03 11:23:10;;;;;;;;;;;;;;;;;;5061200;28;19952;-83
2022/12/03 11:25:46;;;;;;;;;;;;;;;;;;5062077;28;19925;-83
2022/12/03 11:28:32;;;;;;;;;;;;;;;;;;5061533;28;19931;-83
2022/12/03 11:31:01;;;;;;;;;;;;;;;;;;5064754;28;20379;-81
2022/12/03 11:33:29;;;;;;;;;;;;;;;;;;5065833;28;19975;-84
2022/12/03 11:36:10;;;;;;;;;;;;;;;;;;5065654;28;19925;-83
2022/12/03 11:38:55;;;;;;;;;;;;;;;;;;5062692;28;19925;-83
2022/12/03 11:41:22;;;;;;;;;;;;;;;;;;5064683;28;19924;-83
2022/12/03 11:43:59;;;;;;;;;;;;;;;;;;5042907;28;20024;-82
2022/12/03 11:46:27;;;;;;;;;;;;;;;;;;5043725;28;19925;-83
2022/12/03 11:48:57;;;;;;;;;;;;;;;;;;5043350;28;20024;-82
2022/12/03 11:51:25;;;;;;;;;;;;;;;;;;5043798;28;19971;-81
2022/12/03 11:53:52;;;;;;;;;;;;;;;;;;5063882;28;19932;-81
2022/12/03 11:56:19;;;;;;;;;;;;;;;;;;5063084;28;19924;-81
2022/12/03 11:58:47;;;;;;;;;;;;;;;;;;5059765;28;19976;-81
2022/12/03 12:01:14;;;;;;;;;;;;;;;;;;5058455;28;20027;-82
2022/12/03 12:03:42;;;;;;;;;;;;;;;;;;5058360;28;19975;-80
2022/12/03 12:06:11;;;;;;;;;;;;;;;;;;5041809;28;19925;-80
2022/12/03 12:08:38;;;;;;;;;;;;;;;;;;5038606;28;20408;-80
2022/12/03 12:11:15;;;;;;;;;;;;;;;;;;5037679;28;20414;-81
2022/12/03 12:13:54;;;;;;;;;;;;;;;;;;5058706;28;19929;-80
2022/12/03 12:16:37;;;;;;;;;;;;;;;;;;5070122;28;19931;-79
2022/12/03 12:19:19;;;;;;;;;;;;;;;;;;5062309;28;19988;-80
2022/12/03 12:21:48;;;;;;;;;;;;;;;;;;5046403;28;20506;-82
2022/12/03 12:24:37;;;;;;;;;;;;;;;;;;5056839;28;19932;-81
2022/12/03 12:27:05;;;;;;;;;;;;;;;;;;5057943;28;19931;-81
2022/12/03 12:29:32;;;;;;;;;;;;;;;;;;5059121;28;19929;-81
2022/12/03 12:32:06;;;;;;;;;;;;;;;;;;5058977;28;19972;-81
2022/12/03 12:34:33;;;;;;;;;;;;;;;;;;5059758;28;19948;-82
2022/12/03 12:37:01;;;;;;;;;;;;;;;;;;5059450;28;19980;-82
2022/12/03 12:39:27;;;;;;;;;;;;;;;;;;5058889;28;20390;-80
2022/12/03 12:41:54;;;;;;;;;;;;;;;;;;5061874;28;19932;-81
2022/12/03 12:44:22;;;;;;;;;;;;;;;;;;5058906;28;20479;-82
2022/12/03 12:46:49;;;;;;;;;;;;;;;;;;5083965;23;20377;-63
2022/12/03 12:49:19;;;;;;;;;;;;;;;;;;5013441;28;19925;-64
2022/12/03 12:51:46;;;;;;;;;;;;;;;;;;5013654;28;19926;-63
2022/12/03 12:54:15;;;;;;;;;;;;;;;;;;5013343;28;20385;-64
2022/12/03 12:56:43;;;;;;;;;;;;;;;;;;5013584;28;19932;-64
2022/12/03 12:59:11;;;;;;;;;;;;;;;;;;5013172;28;19933;-63
2022/12/03 13:01:37;;;;;;;;;;;;;;;;;;5013477;28;19945;-62
2022/12/03 13:04:10;;;;;;;;;;;;;;;;;;5013421;28;19932;-65
2022/12/03 13:06:36;;;;;;;;;;;;;;;;;;5013335;28;19929;-65
2022/12/03 13:09:03;;;;;;;;;;;;;;;;;;5013468;28;20441;-64
2022/12/03 13:11:38;;;;;;;;;;;;;;;;;;5013080;28;19929;-64
2022/12/03 13:14:10;;;;;;;;;;;;;;;;;;5013549;28;20345;-65
2022/12/03 13:16:37;;;;;;;;;;;;;;;;;;5013494;28;19929;-65
2022/12/03 13:19:13;;;;;;;;;;;;;;;;;;5012795;28;19925;-64
2022/12/03 13:21:40;;;;;;;;;;;;;;;;;;5013213;28;20049;-64
2022/12/03 13:24:24;;;;;;;;;;;;;;;;;;5012899;28;19934;-64
2022/12/03 13:26:52;;;;;;;;;;;;;;;;;;5013161;28;19929;-65
2022/12/03 13:29:19;;;;;;;;;;;;;;;;;;5012545;28;19969;-64
2022/12/03 13:31:49;;;;;;;;;;;;;;;;;;5012855;28;20366;-64
2022/12/03 13:34:18;;;;;;;;;;;;;;;;;;5012862;28;19926;-64
2022/12/03 13:36:45;;;;;;;;;;;;;;;;;;5013159;28;19956;-65
2022/12/03 13:39:17;;;;;;;;;;;;;;;;;;5012494;28;19926;-64
2022/12/03 13:44:30;;;;;;;;;;;;;;;;;;5012927;28;20023;-64
2022/12/03 13:46:56;;;;;;;;;;;;;;;;;;5013103;28;19995;-64
2022/12/03 13:49:24;;;;;;;;;;;;;;;;;;5012591;28;19926;-63
2022/12/03 13:51:50;;;;;;;;;;;;;;;;;;5011193;28;19925;-64
2022/12/03 13:54:19;;;;;;;;;;;;;;;;;;5008131;28;19972;-64
2022/12/03 13:56:45;;;;;;;;;;;;;;;;;;5008964;28;19931;-64
2022/12/03 13:59:12;;;;;;;;;;;;;;;;;;5012562;28;19979;-63
2022/12/03 14:01:40;;;;;;;;;;;;;;;;;;5012738;28;20437;-63
2022/12/03 14:04:06;;;;;;;;;;;;;;;;;;5013089;28;19988;-63
2022/12/03 14:06:33;;;;;;;;;;;;;;;;;;5012109;28;19925;-63
2022/12/03 14:09:00;;;;;;;;;;;;;;;;;;5012126;28;20017;-63
2022/12/03 14:14:10;;;;;;;;;;;;;;;;;;5012430;28;19980;-63
2022/12/03 14:16:36;;;;;;;;;;;;;;;;;;5012609;28;19968;-63
2022/12/03 14:19:05;;;;;;;;;;;;;;;;;;5012466;28;19925;-63
2022/12/03 14:21:31;;;;;;;;;;;;;;;;;;5012191;28;19937;-64
2022/12/03 14:23:58;;;;;;;;;;;;;;;;;;5012750;28;19980;-63
2022/12/03 14:26:25;;;;;;;;;;;;;;;;;;5012717;28;19926;-63
2022/12/03 14:28:51;;;;;;;;;;;;;;;;;;5004557;28;20356;-63
2022/12/03 14:31:18;;;;;;;;;;;;;;;;;;5002785;28;19980;-64
2022/12/03 14:33:44;;;;;;;;;;;;;;;;;;5003290;28;19930;-63
2022/12/03 14:36:12;;;;;;;;;;;;;;;;;;5002122;28;19930;-64
2022/12/03 14:38:39;;;;;;;;;;;;;;;;;;4999050;28;20342;-63
2022/12/03 14:42:11;;;;;;;;;;;;;;;;;;5004052;28;20402;-64
2022/12/03 14:43:52;;;;;;;;;;;;;;;;;;5011720;28;19980;-64
2022/12/03 14:46:19;;;;;;;;;;;;;;;;;;5012037;28;20336;-63
2022/12/03 14:48:45;;;;;;;;;;;;;;;;;;5007200;28;19984;-63
2022/12/03 14:51:13;;;;;;;;;;;;;;;;;;5008517;28;19933;-63
2022/12/03 14:53:40;;;;;;;;;;;;;;;;;;5007875;28;19948;-63
2022/12/03 14:56:06;;;;;;;;;;;;;;;;;;5011171;28;19925;-64
2022/12/03 14:58:33;;;;;;;;;;;;;;;;;;5011531;28;19932;-64
2022/12/03 15:01:00;;;;;;;;;;;;;;;;;;5009134;28;20379;-64
2022/12/03 15:03:26;;;;;;;;;;;;;;;;;;5004245;28;19933;-64
2022/12/03 15:05:53;;;;;;;;;;;;;;;;;;5001129;28;19972;-68
2022/12/03 15:08:21;;;;;;;;;;;;;;;;;;5010028;28;19932;-66
2022/12/03 15:10:48;;;;;;;;;;;;;;;;;;5015447;28;19934;-70
2022/12/03 15:13:14;;;;;;;;;;;;;;;;;;5015442;28;19926;-57
2022/12/03 15:15:41;;;;;;;;;;;;;;;;;;5014737;28;20020;-68
2022/12/03 15:18:07;;;;;;;;;;;;;;;;;;5013986;28;20341;-68
2022/12/03 15:20:34;;;;;;;;;;;;;;;;;;5004123;28;19925;-63
2022/12/03 15:23:01;;;;;;;;;;;;;;;;;;5015553;28;19932;-66
2022/12/03 15:25:28;;;;;;;;;;;;;;;;;;4999519;28;19925;-72
2022/12/03 15:27:55;;;;;;;;;;;;;;;;;;5000069;28;19925;-67
2022/12/03 15:30:22;;;;;;;;;;;;;;;;;;5014907;28;19933;-59
2022/12/03 15:32:48;;;;;;;;;;;;;;;;;;5011639;28;19925;-61
2022/12/03 15:35:17;;;;;;;;;;;;;;;;;;5005764;28;19925;-60
2022/12/03 15:37:43;;;;;;;;;;;;;;;;;;5014587;28;20404;-59
2022/12/03 15:40:11;;;;;;;;;;;;;;;;;;5013331;28;20461;-63
2022/12/03 15:42:39;;;;;;;;;;;;;;;;;;5013964;28;19929;-60
2022/12/03 15:45:05;;;;;;;;;;;;;;;;;;5014532;28;19933;-60
2022/12/03 15:47:32;;;;;;;;;;;;;;;;;;5013125;28;19980;-61
2022/12/03 15:49:59;;;;;;;;;;;;;;;;;;5007296;28;20430;-60
2022/12/03 15:52:25;;;;;;;;;;;;;;;;;;5002785;28;19979;-60
2022/12/03 15:54:52;;;;;;;;;;;;;;;;;;5007823;28;19930;-58
2022/12/03 15:57:18;;;;;;;;;;;;;;;;;;5007583;28;20333;-60
2022/12/03 15:59:46;;;;;;;;;;;;;;;;;;5009540;28;19933;-59
2022/12/03 16:02:13;;;;;;;;;;;;;;;;;;5008030;28;19926;-61
2022/12/03 16:04:39;;;;;;;;;;;;;;;;;;5005428;28;19926;-60
2022/12/03 16:07:06;;;;;;;;;;;;;;;;;;5009852;28;20342;-60
2022/12/03 16:09:32;;;;;;;;;;;;;;;;;;5005534;28;19933;-57
2022/12/03 16:11:59;;;;;;;;;;;;;;;;;;5004423;28;19972;-60
2022/12/03 16:14:26;;;;;;;;;;;;;;;;;;5007242;28;19926;-60
2022/12/03 16:16:54;;;;;;;;;;;;;;;;;;5003648;28;20058;-59
2022/12/03 16:19:20;;;;;;;;;;;;;;;;;;5007702;28;19965;-59
2022/12/03 16:21:47;;;;;;;;;;;;;;;;;;5002748;28;19980;-60
2022/12/03 16:24:13;;;;;;;;;;;;;;;;;;5006914;28;20326;-60
2022/12/03 16:26:40;;;;;;;;;;;;;;;;;;5005188;28;19925;-60
2022/12/03 16:29:06;;;;;;;;;;;;;;;;;;5010613;28;19925;-60
2022/12/03 16:31:33;;;;;;;;;;;;;;;;;;5002665;28;20357;-60
2022/12/03 16:34:01;;;;;;;;;;;;;;;;;;5007938;28;19933;-60
2022/12/03 16:36:27;;;;;;;;;;;;;;;;;;5004273;28;19926;-60
2022/12/03 16:38:54;;;;;;;;;;;;;;;;;;5006770;28;19926;-60
2022/12/03 16:41:21;;;;;;;;;;;;;;;;;;5003966;28;19968;-60
2022/12/03 16:43:47;;;;;;;;;;;;;;;;;;5006485;28;19929;-59
2022/12/03 16:46:24;;;;;;;;;;;;;;;;;;5003120;28;19925;-60
2022/12/03 16:48:50;;;;;;;;;;;;;;;;;;5006592;28;19931;-61
2022/12/03 16:51:19;;;;;;;;;;;;;;;;;;5013079;28;19933;-61
2022/12/03 16:53:45;;;;;;;;;;;;;;;;;;4997867;28;19926;-60
2022/12/03 16:56:12;;;;;;;;;;;;;;;;;;5013399;28;19937;-59
2022/12/03 16:58:39;;;;;;;;;;;;;;;;;;5013378;28;20012;-59
2022/12/03 17:01:05;;;;;;;;;;;;;;;;;;5013307;28;19969;-59
2022/12/03 17:03:32;;;;;;;;;;;;;;;;;;5013226;28;19933;-60
2022/12/03 17:05:58;;;;;;;;;;;;;;;;;;5013477;28;20350;-60
2022/12/03 17:08:26;;;;;;;;;;;;;;;;;;5012826;28;19929;-59
2022/12/03 17:10:53;;;;;;;;;;;;;;;;;;5011630;28;19984;-59
2022/12/03 17:13:21;;;;;;;;;;;;;;;;;;5009236;28;20294;-50
2022/12/03 17:15:48;;;;;;;;;;;;;;;;;;5009020;28;19926;-55
2022/12/03 17:18:15;;;;;;;;;;;;;;;;;;5011536;28;19972;-55
2022/12/03 17:20:41;;;;;;;;;;;;;;;;;;5010207;28;19933;-56
2022/12/03 17:23:08;;;;;;;;;;;;;;;;;;5010766;28;19929;-56
2022/12/03 17:25:36;;;;;;;;;;;;;;;;;;5011075;28;19926;-58
2022/12/03 17:28:02;;;;;;;;;;;;;;;;;;5011898;28;20454;-58
2022/12/03 17:30:29;;;;;;;;;;;;;;;;;;5010367;28;19925;-54
2022/12/03 17:32:55;;;;;;;;;;;;;;;;;;5011011;28;19965;-53
2022/12/03 17:35:22;;;;;;;;;;;;;;;;;;5011286;28;20298;-54
2022/12/03 17:37:48;;;;;;;;;;;;;;;;;;5011130;28;20615;-56
2022/12/03 17:40:16;;;;;;;;;;;;;;;;;;5010995;28;19929;-56
2022/12/03 17:42:43;;;;;;;;;;;;;;;;;;5011097;28;20442;-54
2022/12/03 17:45:11;;;;;;;;;;;;;;;;;;5010979;28;19926;-56
2022/12/03 17:47:38;;;;;;;;;;;;;;;;;;5010344;28;20276;-58
2022/12/03 17:50:05;;;;;;;;;;;;;;;;;;5005562;28;19933;-53
2022/12/03 17:52:32;;;;;;;;;;;;;;;;;;5009898;28;19956;-57
2022/12/03 17:54:58;;;;;;;;;;;;;;;;;;4997429;28;20409;-57
2022/12/03 17:57:25;;;;;;;;;;;;;;;;;;5000921;28;19925;-54
2022/12/03 17:59:53;;;;;;;;;;;;;;;;;;5010630;28;19980;-55